createdAt,value
2018-03-02T00:01:01.266Z,99037.01
2018-03-02T00:03:30.388Z,99038.31
2018-03-02T00:05:59.482Z,99029.17
2018-03-02T00:08:28.586Z,99030.09
2018-03-02T00:10:57.700Z,99036.41
2018-03-02T00:13:26.789Z,99026.36
2018-03-02T00:15:55.894Z,99017.12
2018-03-02T00:18:24.990Z,99014.48
2018-03-02T00:20:54.110Z,99012.05
2018-03-02T00:23:23.226Z,99011.31
2018-03-02T00:25:52.338Z,99002.25
2018-03-02T00:28:22.191Z,98999.77
2018-03-02T00:30:51.324Z,98989.09
2018-03-02T00:33:20.422Z,98993.47
2018-03-02T00:35:49.528Z,98991.51
2018-03-02T00:38:18.629Z,98992.23
2018-03-02T00:40:48.486Z,98978.39
2018-03-02T00:43:17.633Z,98977.22
2018-03-02T00:45:46.727Z,98968.94
2018-03-02T00:48:15.830Z,98966.25
2018-03-02T00:50:45.693Z,98959.21
2018-03-02T00:53:14.877Z,98959.28
2018-03-02T00:55:43.970Z,98953.61
2018-03-02T00:58:13.076Z,98959.91
2018-03-02T01:00:42.166Z,98972.19
2018-03-02T01:03:11.306Z,98966.09
2018-03-02T01:05:41.171Z,98952.77
2018-03-02T01:08:10.261Z,98960.73
2018-03-02T01:10:39.378Z,98955.84
2018-03-02T01:13:09.954Z,98949.21
2018-03-02T01:15:39.082Z,98950.34
2018-03-02T01:18:08.976Z,98945.81
2018-03-02T01:20:38.872Z,98956.79
2018-03-02T01:23:07.954Z,98936.04
2018-03-02T01:25:37.830Z,98918.80
2018-03-02T01:28:06.950Z,98942.53
2018-03-02T01:30:36.059Z,98953.38
2018-03-02T01:33:05.143Z,98936.30
2018-03-02T01:35:34.279Z,98930.52
2018-03-02T01:38:03.357Z,98944.87
2018-03-02T01:40:32.468Z,98937.59
2018-03-02T01:43:01.702Z,98924.13
2018-03-02T01:45:30.794Z,98922.08
2018-03-02T01:47:59.905Z,98922.51
2018-03-02T01:50:29.003Z,98920.65
2018-03-02T01:52:58.126Z,98916.47
2018-03-02T01:55:27.215Z,98916.78
2018-03-02T01:57:56.329Z,98902.03
2018-03-02T02:00:25.432Z,98904.11
2018-03-02T02:02:54.525Z,98905.61
2018-03-02T02:05:23.653Z,98908.48
2018-03-02T02:07:53.516Z,98908.47
2018-03-02T02:10:22.620Z,98903.80
2018-03-02T02:12:51.713Z,98909.64
2018-03-02T02:15:20.834Z,98912.50
2018-03-02T02:17:49.939Z,98920.23
2018-03-02T02:20:19.824Z,98915.93
2018-03-02T02:22:48.948Z,98909.83
2018-03-02T02:25:18.055Z,98927.22
2018-03-02T02:27:47.925Z,98919.62
2018-03-02T02:30:17.054Z,98910.34
2018-03-02T02:32:46.910Z,98900.46
2018-03-02T02:35:16.028Z,98905.83
2018-03-02T02:37:45.912Z,98905.02
2018-03-02T02:40:15.003Z,98901.97
2018-03-02T02:42:44.115Z,98888.09
2018-03-02T02:45:13.229Z,98897.88
2018-03-02T02:47:42.345Z,98888.10
2018-03-02T02:50:11.441Z,98877.05
2018-03-02T02:52:40.598Z,98884.14
2018-03-02T02:55:09.705Z,98883.21
2018-03-02T02:57:38.809Z,98882.59
2018-03-02T03:00:07.915Z,98869.12
2018-03-02T03:02:37.032Z,98874.77
2018-03-02T03:05:06.145Z,98870.73
2018-03-02T03:07:36.024Z,98857.52
2018-03-02T03:10:05.128Z,98862.05
2018-03-02T03:12:34.398Z,98858.16
2018-03-02T03:15:03.494Z,98854.27
2018-03-02T03:17:33.386Z,98848.08
2018-03-02T03:20:02.503Z,98855.13
2018-03-02T03:22:31.597Z,98843.76
2018-03-02T03:25:00.787Z,98826.25
2018-03-02T03:27:29.871Z,98826.25
2018-03-02T03:29:58.992Z,98837.36
2018-03-02T03:32:28.082Z,98841.92
2018-03-02T03:34:57.201Z,98843.95
2018-03-02T03:37:26.299Z,98848.30
2018-03-02T03:39:55.414Z,98849.01
2018-03-02T03:42:24.541Z,98858.70
2018-03-02T03:44:53.651Z,98849.40
2018-03-02T03:47:22.746Z,98842.98
2018-03-02T03:49:51.871Z,98837.48
2018-03-02T03:52:20.981Z,98843.26
2018-03-02T03:54:50.133Z,98850.44
2018-03-02T03:57:19.209Z,98845.88
2018-03-02T03:59:49.075Z,98833.13
2018-03-02T04:02:18.197Z,98820.81
2018-03-02T04:04:47.315Z,98797.71
2018-03-02T04:07:17.195Z,98809.05
2018-03-02T04:09:46.287Z,98797.59
2018-03-02T04:12:15.399Z,98792.09
2018-03-02T04:14:44.502Z,98800.10
2018-03-02T04:17:14.383Z,98783.20
2018-03-02T04:19:43.491Z,98784.48
2018-03-02T04:22:12.620Z,98767.31
2018-03-02T04:24:42.488Z,98756.65
2018-03-02T04:27:11.618Z,98758.69
2018-03-02T04:29:40.703Z,98750.94
2018-03-02T04:32:09.821Z,98741.58
2018-03-02T04:34:39.690Z,98731.00
2018-03-02T04:37:08.799Z,98733.38
2018-03-02T04:39:37.904Z,98732.58
2018-03-02T04:42:07.019Z,98738.96
2018-03-02T04:44:36.906Z,98730.48
2018-03-02T04:47:06.008Z,98733.90
2018-03-02T04:49:35.130Z,98747.42
2018-03-02T04:52:05.018Z,98749.70
2018-03-02T04:54:34.113Z,98738.52
2018-03-02T04:57:03.222Z,98739.38
2018-03-02T04:59:32.347Z,98744.13
2018-03-02T05:02:02.209Z,98739.70
2018-03-02T05:04:31.319Z,98740.38
2018-03-02T05:07:00.414Z,98748.43
2018-03-02T05:09:29.533Z,98728.41
2018-03-02T05:11:59.397Z,98729.64
2018-03-02T05:14:28.525Z,98724.63
2018-03-02T05:16:57.630Z,98727.62
2018-03-02T05:19:26.736Z,98714.71
2018-03-02T05:21:56.592Z,98712.05
2018-03-02T05:24:25.692Z,98710.98
2018-03-02T05:26:54.795Z,98722.52
2018-03-02T05:29:23.934Z,98713.48
2018-03-02T05:31:53.805Z,98712.27
2018-03-02T05:34:22.930Z,98718.77
2018-03-02T05:36:52.028Z,98713.73
2018-03-02T05:39:21.180Z,98697.86
2018-03-02T05:41:50.293Z,98706.39
2018-03-02T05:44:19.442Z,98711.41
2018-03-02T05:46:49.314Z,98696.44
2018-03-02T05:49:18.422Z,98694.29
2018-03-02T05:51:47.534Z,98690.67
2018-03-02T05:54:17.397Z,98694.88
2018-03-02T05:56:46.521Z,98691.94
2018-03-02T05:59:15.620Z,98694.34
2018-03-02T06:01:44.757Z,98694.53
2018-03-02T06:04:14.638Z,98686.25
2018-03-02T06:06:43.741Z,98694.42
2018-03-02T06:09:12.849Z,98679.95
2018-03-02T06:11:42.713Z,98679.40
2018-03-02T06:14:12.589Z,98683.07
2018-03-02T06:16:41.753Z,98679.23
2018-03-02T06:19:10.834Z,98683.00
2018-03-02T06:21:39.979Z,98680.13
2018-03-02T06:24:09.832Z,98676.16
2018-03-02T06:26:38.936Z,98674.54
2018-03-02T06:29:08.058Z,98678.77
2018-03-02T06:31:37.186Z,98664.88
2018-03-02T06:34:07.071Z,98667.27
2018-03-02T06:36:37.693Z,98666.64
2018-03-02T06:39:06.816Z,98672.68
2018-03-02T06:41:36.679Z,98669.52
2018-03-02T06:44:05.810Z,98672.23
2018-03-02T06:46:34.917Z,98679.62
2018-03-02T06:49:04.790Z,98687.12
2018-03-02T06:51:33.913Z,98683.34
2018-03-02T06:54:03.029Z,98671.62
2018-03-02T06:56:32.906Z,98676.98
2018-03-02T06:59:02.004Z,98671.05
2018-03-02T07:01:31.117Z,98673.38
2018-03-02T07:04:00.232Z,98681.56
2018-03-02T07:06:30.106Z,98667.03
2018-03-02T07:08:59.206Z,98670.16
2018-03-02T07:11:28.329Z,98670.56
2018-03-02T07:13:58.225Z,98672.98
2018-03-02T07:16:27.342Z,98674.73
2018-03-02T07:18:58.196Z,98670.78
2018-03-02T07:21:28.075Z,98661.45
2018-03-02T07:23:57.200Z,98665.91
2018-03-02T07:26:27.067Z,98670.42
2018-03-02T07:28:56.956Z,98664.88
2018-03-02T07:31:26.071Z,98667.27
2018-03-02T07:33:55.161Z,98655.39
2018-03-02T07:36:24.276Z,98656.17
2018-03-02T07:38:53.370Z,98658.55
2018-03-02T07:41:22.498Z,98654.93
2018-03-02T07:43:52.362Z,98641.37
2018-03-02T07:46:21.482Z,98641.42
2018-03-02T07:48:50.587Z,98637.73
2018-03-02T07:51:19.706Z,98632.75
2018-03-02T07:53:49.613Z,98628.67
2018-03-02T07:56:18.717Z,98629.45
2018-03-02T07:58:48.602Z,98634.00
2018-03-02T08:01:17.721Z,98630.44
2018-03-02T08:03:47.590Z,98647.54
2018-03-02T08:06:16.720Z,98636.95
2018-03-02T08:08:46.610Z,98632.38
2018-03-02T08:11:16.483Z,98622.66
2018-03-02T08:13:45.642Z,98625.64
2018-03-02T08:16:14.758Z,98633.40
2018-03-02T08:18:44.990Z,98633.01
2018-03-02T08:21:14.869Z,98625.38
2018-03-02T08:23:44.001Z,98618.38
2018-03-02T08:26:13.881Z,98608.50
2018-03-02T08:28:42.997Z,98610.16
2018-03-02T08:31:12.238Z,98616.78
2018-03-02T08:33:41.531Z,98613.17
2018-03-02T08:36:10.771Z,98609.09
2018-03-02T08:38:39.869Z,98606.98
2018-03-02T08:41:08.986Z,98595.63
2018-03-02T08:43:38.966Z,98605.00
2018-03-02T08:46:08.086Z,98604.45
2018-03-02T08:48:37.202Z,98600.56
2018-03-02T08:51:07.023Z,98598.00
2018-03-02T08:53:36.870Z,98606.37
2018-03-02T08:56:05.980Z,98612.63
2018-03-02T08:58:35.113Z,98610.89
2018-03-02T09:01:05.010Z,98599.34
2018-03-02T09:03:34.135Z,98577.73
2018-03-02T09:06:04.036Z,98577.91
2018-03-02T09:08:33.181Z,98581.89
2018-03-02T09:11:02.297Z,98571.95
2018-03-02T09:13:31.415Z,98569.50
2018-03-02T09:16:00.518Z,98571.00
2018-03-02T09:18:29.622Z,98573.47
2018-03-02T09:20:59.519Z,98581.56
2018-03-02T09:23:28.649Z,98576.95
2018-03-02T09:25:58.534Z,98584.45
2018-03-02T09:28:27.639Z,98592.43
2018-03-02T09:30:56.759Z,98595.31
2018-03-02T09:33:25.853Z,98601.42
2018-03-02T09:35:54.961Z,98606.06
2018-03-02T09:38:24.061Z,98609.28
2018-03-02T09:40:53.214Z,98615.72
2018-03-02T09:43:22.345Z,98611.25
2018-03-02T09:45:52.209Z,98613.06
2018-03-02T09:48:21.334Z,98618.59
2018-03-02T09:50:50.425Z,98626.68
2018-03-02T09:53:20.301Z,98628.54
2018-03-02T09:55:50.188Z,98637.80
2018-03-02T09:58:19.270Z,98643.73
2018-03-02T10:00:48.398Z,98642.22
2018-03-02T10:03:17.534Z,98633.75
2018-03-02T10:05:47.167Z,98637.66
2018-03-02T10:08:17.039Z,98642.86
2018-03-02T10:10:46.128Z,98636.44
2018-03-02T10:13:15.238Z,98633.38
2018-03-02T10:15:44.368Z,98617.41
2018-03-02T10:18:14.237Z,98607.17
2018-03-02T10:20:43.338Z,98613.92
2018-03-02T10:23:12.473Z,98613.29
2018-03-02T10:25:42.363Z,98612.80
2018-03-02T10:28:11.441Z,98612.27
2018-03-02T10:30:41.362Z,98606.14
2018-03-02T10:33:10.468Z,98611.64
2018-03-02T10:35:39.645Z,98607.47
2018-03-02T10:38:09.476Z,98614.25
2018-03-02T10:40:38.611Z,98615.53
2018-03-02T10:43:07.712Z,98611.13
2018-03-02T10:45:36.849Z,98608.62
2018-03-02T10:48:05.992Z,98615.67
2018-03-02T10:50:35.068Z,98607.69
2018-03-02T10:53:04.181Z,98608.81
2018-03-02T10:55:34.050Z,98608.69
2018-03-02T10:58:03.139Z,98614.14
2018-03-02T11:00:37.681Z,98608.45
2018-03-02T11:03:06.780Z,98607.86
2018-03-02T11:05:41.515Z,98607.13
2018-03-02T11:08:10.611Z,98604.97
2018-03-02T11:10:39.727Z,98602.22
2018-03-02T11:13:09.573Z,98612.77
2018-03-02T11:15:38.688Z,98617.16
2018-03-02T11:18:07.796Z,98623.09
2018-03-02T11:20:36.899Z,98632.59
2018-03-02T11:23:06.003Z,98640.78
2018-03-02T11:25:35.144Z,98649.09
2018-03-02T11:28:04.992Z,98650.67
2018-03-02T11:30:34.121Z,98648.08
2018-03-02T11:33:04.730Z,98662.08
2018-03-02T11:35:33.821Z,98663.22
2018-03-02T11:38:02.930Z,98669.88
2018-03-02T11:40:32.005Z,98678.94
2018-03-02T11:43:01.117Z,98682.63
2018-03-02T11:45:30.218Z,98675.46
2018-03-02T11:47:59.334Z,98684.34
2018-03-02T11:50:29.203Z,98683.28
2018-03-02T11:52:58.316Z,98684.50
2018-03-02T11:55:27.416Z,98687.66
2018-03-02T11:57:56.572Z,98689.08
2018-03-02T12:00:25.707Z,98691.90
2018-03-02T12:02:54.792Z,98694.64
2018-03-02T12:05:23.897Z,98683.70
2018-03-02T12:07:52.989Z,98680.06
2018-03-02T12:10:22.910Z,98665.85
2018-03-02T12:12:51.993Z,98660.70
2018-03-02T12:15:21.097Z,98659.48
2018-03-02T12:17:50.193Z,98669.20
2018-03-02T12:20:19.332Z,98669.81
2018-03-02T12:22:49.208Z,98674.00
2018-03-02T12:25:18.320Z,98672.25
2018-03-02T12:27:47.393Z,98675.71
2018-03-02T12:30:16.538Z,98677.00
2018-03-02T12:32:46.406Z,98678.64
2018-03-02T12:35:15.520Z,98677.52
2018-03-02T12:37:44.634Z,98672.83
2018-03-02T12:40:15.547Z,98673.70
2018-03-02T12:42:44.655Z,98667.67
2018-03-02T12:45:13.773Z,98673.55
2018-03-02T12:47:43.644Z,98673.93
2018-03-02T12:50:12.773Z,98681.67
2018-03-02T12:52:42.628Z,98679.69
2018-03-02T12:55:11.810Z,98679.63
2018-03-02T12:57:40.856Z,98666.02
2018-03-02T13:00:09.995Z,98666.17
2018-03-02T13:02:39.130Z,98678.73
2018-03-02T13:05:08.232Z,98673.58
2018-03-02T13:07:37.354Z,98659.98
2018-03-02T13:10:06.452Z,98649.45
2018-03-02T13:12:35.556Z,98664.77
2018-03-02T13:15:04.655Z,98683.67
2018-03-02T13:17:34.522Z,98669.39
2018-03-02T13:20:03.650Z,98674.59
2018-03-02T13:22:43.257Z,98689.17
2018-03-02T13:25:12.400Z,98682.78
2018-03-02T13:27:59.203Z,98691.09
2018-03-02T13:30:28.318Z,98684.72
2018-03-02T13:33:15.868Z,98681.58
2018-03-02T13:35:44.982Z,98680.59
2018-03-02T13:38:14.091Z,98692.30
2018-03-02T13:41:00.872Z,98688.19
2018-03-02T13:43:29.991Z,98689.01
2018-03-02T13:45:59.080Z,98697.66
2018-03-02T13:48:46.645Z,98696.61
2018-03-02T13:51:15.754Z,98699.22
2018-03-02T13:53:45.662Z,98698.41
2018-03-02T13:56:32.423Z,98705.77
2018-03-02T13:59:01.565Z,98711.45
2018-03-02T14:01:30.685Z,98713.45
2018-03-02T14:04:18.182Z,98722.11
2018-03-02T14:06:47.299Z,98732.13
2018-03-02T14:09:17.185Z,98730.20
2018-03-02T14:11:46.299Z,98733.45
2018-03-02T14:14:15.415Z,98723.46
2018-03-02T14:16:45.313Z,98723.31
2018-03-02T14:19:14.458Z,98723.82
2018-03-02T14:21:44.387Z,98725.05
2018-03-02T14:24:13.506Z,98730.16
2018-03-02T14:26:43.370Z,98730.61
2018-03-02T14:29:12.519Z,98729.38
2018-03-02T14:31:41.622Z,98738.44
2018-03-02T14:34:10.747Z,98740.12
2018-03-02T14:36:40.609Z,98739.77
2018-03-02T14:39:09.731Z,98734.55
2018-03-02T14:41:38.867Z,98739.88
2018-03-02T14:44:07.969Z,98736.47
2018-03-02T14:46:37.094Z,98739.95
2018-03-02T14:49:06.169Z,98741.91
2018-03-02T14:51:35.382Z,98744.88
2018-03-02T14:54:04.427Z,98747.95
2018-03-02T14:56:34.318Z,98752.88
2018-03-02T14:59:03.428Z,98749.37
2018-03-02T15:01:32.541Z,98754.64
2018-03-02T15:04:02.401Z,98758.33
2018-03-02T15:06:31.524Z,98760.08
2018-03-02T15:09:00.644Z,98761.58
2018-03-02T15:11:30.537Z,98776.50
2018-03-02T15:13:59.630Z,98769.55
2018-03-02T15:16:29.549Z,98780.47
2018-03-02T15:18:58.666Z,98778.72
2018-03-02T15:21:28.531Z,98789.24
2018-03-02T15:23:57.640Z,98796.91
2018-03-02T15:26:26.762Z,98795.97
2018-03-02T15:28:55.851Z,98806.14
2018-03-02T15:31:24.956Z,98807.04
2018-03-02T15:33:54.059Z,98815.59
2018-03-02T15:36:23.161Z,98815.44
2018-03-02T15:38:52.264Z,98819.19
2018-03-02T15:41:22.156Z,98823.38
2018-03-02T15:43:51.268Z,98827.36
2018-03-02T15:46:20.347Z,98828.41
2018-03-02T15:48:49.508Z,98827.92
2018-03-02T15:51:18.664Z,98832.39
2018-03-02T15:53:48.602Z,98843.41
2018-03-02T15:56:18.500Z,98840.94
2018-03-02T15:58:48.411Z,98846.48
2018-03-02T16:01:18.284Z,98854.20
2018-03-02T16:03:47.368Z,98856.59
2018-03-02T16:06:16.493Z,98860.17
2018-03-02T16:08:45.599Z,98859.55
2018-03-02T16:11:14.698Z,98864.23
2018-03-02T16:13:43.830Z,98866.67
2018-03-02T16:16:12.926Z,98873.39
2018-03-02T16:18:42.047Z,98875.82
2018-03-02T16:21:11.143Z,98878.66
2018-03-02T16:23:40.288Z,98878.95
2018-03-02T16:26:09.437Z,98886.77
2018-03-02T16:28:38.563Z,98885.41
2018-03-02T16:31:07.679Z,98891.19
2018-03-02T16:33:37.587Z,98891.88
2018-03-02T16:36:06.704Z,98888.42
2018-03-02T16:38:36.609Z,98898.61
2018-03-02T16:41:06.531Z,98895.39
2018-03-02T16:43:36.425Z,98896.61
2018-03-02T16:46:05.541Z,98903.89
2018-03-02T16:48:35.462Z,98910.93
2018-03-02T16:51:04.585Z,98912.95
2018-03-02T16:53:34.581Z,98922.09
2018-03-02T16:56:03.703Z,98921.08
2018-03-02T16:58:32.798Z,98921.28
2018-03-02T17:01:01.936Z,98930.92
2018-03-02T17:03:31.082Z,98934.45
2018-03-02T17:06:00.203Z,98935.25
2018-03-02T17:08:29.366Z,98942.39
2018-03-02T17:10:58.472Z,98940.23
2018-03-02T17:13:27.597Z,98933.88
2018-03-02T17:15:56.735Z,98933.75
2018-03-02T17:18:26.625Z,98931.11
2018-03-02T17:20:55.806Z,98933.37
2018-03-02T17:23:24.914Z,98949.79
2018-03-02T17:25:54.024Z,98950.72
2018-03-02T17:28:23.179Z,98948.45
2018-03-02T17:30:52.315Z,98950.36
2018-03-02T17:33:22.957Z,98951.30
2018-03-02T17:35:52.093Z,98953.22
2018-03-02T17:38:21.261Z,98955.11
2018-03-02T17:40:51.133Z,98951.30
2018-03-02T17:43:20.284Z,98946.17
2018-03-02T17:45:50.167Z,98950.45
2018-03-02T17:48:19.287Z,98951.58
2018-03-02T17:50:48.457Z,98966.15
2018-03-02T17:53:17.538Z,98962.95
2018-03-02T17:55:46.675Z,98970.20
2018-03-02T17:58:16.539Z,98965.67
2018-03-02T18:00:45.682Z,98966.90
2018-03-02T18:03:15.591Z,98970.61
2018-03-02T18:05:44.774Z,98968.59
2018-03-02T18:08:13.856Z,98968.03
2018-03-02T18:10:43.757Z,98972.87
2018-03-02T18:13:12.839Z,98971.32
2018-03-02T18:15:41.980Z,98973.16
2018-03-02T18:18:11.118Z,98966.23
2018-03-02T18:20:40.238Z,98972.73
2018-03-02T18:23:09.390Z,98974.70
2018-03-02T18:25:39.287Z,98974.57
2018-03-02T18:28:08.417Z,98972.06
2018-03-02T18:30:38.322Z,98961.44
2018-03-02T18:33:08.191Z,98960.17
2018-03-02T18:35:37.336Z,98965.20
2018-03-02T18:38:07.240Z,98961.73
2018-03-02T18:40:36.348Z,98957.40
2018-03-02T18:43:06.219Z,98959.05
2018-03-02T18:45:36.857Z,98955.86
2018-03-02T18:48:05.971Z,98962.72
2018-03-02T18:50:35.094Z,98966.05
2018-03-02T18:53:04.219Z,98970.61
2018-03-02T18:55:33.374Z,98974.23
2018-03-02T18:58:03.273Z,98964.97
2018-03-02T19:00:32.394Z,98968.97
2018-03-02T19:03:01.527Z,98969.91
2018-03-02T19:05:30.706Z,98970.66
2018-03-02T19:07:59.816Z,98963.84
2018-03-02T19:10:28.928Z,98957.97
2018-03-02T19:12:58.075Z,98954.63
2018-03-02T19:15:27.207Z,98958.19
2018-03-02T19:17:56.345Z,98965.24
2018-03-02T19:20:25.502Z,98970.09
2018-03-02T19:22:54.618Z,98966.43
2018-03-02T19:25:23.736Z,98961.63
2018-03-02T19:27:52.863Z,98962.44
2018-03-02T19:30:22.750Z,98954.44
2018-03-02T19:32:51.849Z,98963.38
2018-03-02T19:35:21.774Z,98961.95
2018-03-02T19:37:51.658Z,98960.17
2018-03-02T19:40:20.829Z,98969.34
2018-03-02T19:42:49.970Z,98961.49
2018-03-02T19:45:19.134Z,98964.41
2018-03-02T19:47:48.285Z,98967.22
2018-03-02T19:50:18.205Z,98966.90
2018-03-02T19:52:48.103Z,98973.75
2018-03-02T19:55:18.150Z,98972.91
2018-03-02T19:57:47.272Z,98971.86
2018-03-02T20:00:16.407Z,98975.16
2018-03-02T20:02:45.561Z,98978.92
2018-03-02T20:05:14.684Z,98974.96
2018-03-02T20:07:43.813Z,98975.07
2018-03-02T20:10:13.703Z,98966.48
2018-03-02T20:12:44.396Z,98967.28
2018-03-02T20:15:13.507Z,98970.53
2018-03-02T20:17:42.657Z,98966.63
2018-03-02T20:20:12.545Z,98965.30
2018-03-02T20:22:41.672Z,98961.87
2018-03-02T20:25:11.171Z,98958.72
2018-03-02T20:27:40.347Z,98970.34
2018-03-02T20:30:09.498Z,98967.76
2018-03-02T20:32:38.704Z,98962.99
2018-03-02T20:35:07.871Z,98972.97
2018-03-02T20:37:37.773Z,98964.83
2018-03-02T20:40:06.900Z,98963.89
2018-03-02T20:42:36.020Z,98962.09
2018-03-02T20:45:05.175Z,98966.95
2018-03-02T20:47:35.117Z,98971.52
2018-03-02T20:50:04.252Z,98968.36
2018-03-02T20:52:33.458Z,98970.20
2018-03-02T20:55:02.540Z,98963.90
2018-03-02T20:57:31.668Z,98965.54
2018-03-02T21:00:01.579Z,98973.11
2018-03-02T21:02:31.491Z,98970.09
2018-03-02T21:05:02.070Z,98970.98
2018-03-02T21:07:31.191Z,98972.84
2018-03-02T21:10:00.334Z,98974.56
2018-03-02T21:12:31.312Z,98972.97
2018-03-02T21:15:00.474Z,98976.12
2018-03-02T21:17:29.629Z,98978.70
2018-03-02T21:19:58.738Z,98976.72
2018-03-02T21:22:27.896Z,98971.36
2018-03-02T21:24:57.039Z,98962.52
2018-03-02T21:27:26.175Z,98963.44
2018-03-02T21:29:56.354Z,98974.36
2018-03-02T21:32:25.454Z,98975.44
2018-03-02T21:34:55.366Z,98964.73
2018-03-02T21:37:24.475Z,98974.01
2018-03-02T21:39:54.391Z,98972.77
2018-03-02T21:42:24.291Z,98974.47
2018-03-02T21:44:53.416Z,98970.30
2018-03-02T21:47:22.535Z,98970.94
2018-03-02T21:49:51.662Z,98962.69
2018-03-02T21:52:20.749Z,98952.28
2018-03-02T21:54:49.927Z,98947.58
2018-03-02T21:57:19.041Z,98949.56
2018-03-02T21:59:48.914Z,98951.88
2018-03-02T22:02:18.059Z,98954.42
2018-03-02T22:04:47.181Z,98945.19
2018-03-02T22:07:17.086Z,98948.66
2018-03-02T22:09:46.201Z,98942.30
2018-03-02T22:12:16.092Z,98944.27
2018-03-02T22:14:45.202Z,98942.23
2018-03-02T22:17:14.315Z,98949.34
2018-03-02T22:19:43.421Z,98944.43
2018-03-02T22:22:12.560Z,98939.45
2018-03-02T22:24:41.674Z,98937.19
2018-03-02T22:27:10.813Z,98946.39
2018-03-02T22:29:39.935Z,98946.45
2018-03-02T22:32:09.057Z,98950.88
2018-03-02T22:34:38.177Z,98943.44
2018-03-02T22:37:08.073Z,98944.38
2018-03-02T22:39:37.183Z,98940.63
2018-03-02T22:42:06.286Z,98936.47
2018-03-02T22:44:36.175Z,98943.11
2018-03-02T22:47:05.302Z,98950.42
2018-03-02T22:49:35.189Z,98950.90
2018-03-02T22:52:04.330Z,98942.03
2018-03-02T22:54:33.423Z,98953.53
2018-03-02T22:57:02.561Z,98961.38
2018-03-02T22:59:31.666Z,98950.98
2018-03-02T23:02:00.812Z,98957.80
2018-03-02T23:04:29.939Z,98946.55
2018-03-02T23:06:59.061Z,98947.30
2018-03-02T23:09:28.184Z,98940.89
2018-03-02T23:11:58.083Z,98940.94
2018-03-02T23:14:27.230Z,98941.47
2018-03-02T23:16:56.316Z,98953.03
2018-03-02T23:19:25.452Z,98950.22
2018-03-02T23:21:54.594Z,98939.67
2018-03-02T23:24:23.721Z,98936.86
2018-03-02T23:26:52.813Z,98932.13
2018-03-02T23:29:21.914Z,98928.34
2018-03-02T23:31:52.478Z,98927.50
2018-03-02T23:34:21.598Z,98944.77
2018-03-02T23:36:50.712Z,98949.39
2018-03-02T23:39:20.558Z,98945.67
2018-03-02T23:41:49.687Z,98954.47
2018-03-02T23:44:18.774Z,98961.66
2018-03-02T23:46:47.896Z,98968.14
2018-03-02T23:49:17.745Z,98970.44
2018-03-02T23:51:47.631Z,98966.91
2018-03-02T23:54:17.554Z,98958.55
2018-03-02T23:56:47.456Z,98957.55
2018-03-02T23:59:17.327Z,98951.64
